Time;durP1;ratioP1;P1;durP2;ratioP2;P2;SDS_P1;SDS_P2;PMS_P1;PMS_P2;Temp;Humidity;BMP_temperature;BMP_pressure;BME280_temperature;BME280_humidity;BME280_pressure;Samples;Min_cycle;Max_cycle;Signal;HPM_P1;HPM_P2
2023/02/07 00:01:46;;;;;;;2.62;2.40;;;;;;;-3.06;72.23;101414.95;1890495;76;21051;-45
2023/02/07 00:04:16;;;;;;;8.38;5.20;;;;;;;-3.15;72.67;101401.00;1890409;76;21140;-45
2023/02/07 00:06:45;;;;;;;6.47;3.62;;;;;;;-3.14;72.72;101396.28;1898816;74;21023;-46
2023/02/07 00:09:14;;;;;;;9.78;4.97;;;;;;;-3.16;72.82;101401.81;1909390;74;21134;-47
2023/02/07 00:11:42;;;;;;;9.23;4.65;;;;;;;-3.20;72.87;101393.97;1899252;74;21122;-45
2023/02/07 00:14:12;;;;;;;6.75;3.25;;;;;;;-3.24;72.99;101404.61;1909147;74;21597;-46
2023/02/07 00:16:41;;;;;;;13.95;6.25;;;;;;;-3.28;73.13;101394.48;1902256;74;21174;-46
2023/02/07 00:19:10;;;;;;;9.95;5.25;;;;;;;-3.32;73.42;101394.48;1923708;74;21400;-46
2023/02/07 00:21:39;;;;;;;13.90;6.87;;;;;;;-3.32;73.38;101390.23;1906564;74;21051;-48
2023/02/07 00:24:08;;;;;;;7.62;4.53;;;;;;;-3.34;73.56;101397.44;1890496;76;21121;-47
2023/02/07 00:26:36;;;;;;;9.73;4.22;;;;;;;-3.38;73.67;101409.77;1890632;76;21051;-46
2023/02/07 00:29:05;;;;;;;10.95;4.35;;;;;;;-3.41;73.77;101403.23;1915751;74;21024;-49
2023/02/07 00:31:37;;;;;;;6.90;3.75;;;;;;;-3.42;73.89;101404.95;1902986;74;21043;-45
2023/02/07 00:34:07;;;;;;;8.68;4.45;;;;;;;-3.43;74.00;101398.46;1923860;74;21220;-45
2023/02/07 00:36:38;;;;;;;12.20;7.08;;;;;;;-3.43;74.09;101403.61;1903991;74;21137;-46
2023/02/07 00:39:09;;;;;;;15.78;8.15;;;;;;;-3.42;74.28;101403.66;1901055;74;21473;-45
2023/02/07 00:41:39;;;;;;;15.65;6.50;;;;;;;-3.46;74.24;101401.84;1891455;76;21011;-46
2023/02/07 00:44:08;;;;;;;14.38;6.78;;;;;;;-3.55;74.33;101389.56;1913044;74;21522;-46
2023/02/07 00:46:37;;;;;;;10.23;5.28;;;;;;;-3.66;74.34;101405.11;1905114;75;21024;-47
2023/02/07 00:49:06;;;;;;;9.48;4.45;;;;;;;-3.66;74.34;101405.11;1902695;75;21431;-47
2023/02/07 00:51:35;;;;;;;11.70;6.83;;;;;;;-3.66;74.54;101418.40;1905356;75;21040;-46
2023/02/07 00:54:04;;;;;;;7.55;3.83;;;;;;;-3.68;74.58;101424.78;1905233;75;21092;-48
2023/02/07 00:56:33;;;;;;;7.20;3.75;;;;;;;-3.74;74.67;101415.18;1905280;74;21008;-48
2023/02/07 00:59:02;;;;;;;13.13;6.92;;;;;;;-3.79;74.61;101406.86;1903437;75;21536;-47
2023/02/07 01:01:31;;;;;;;8.23;5.35;;;;;;;-3.83;74.67;101407.61;1872586;77;21051;-50
2023/02/07 01:04:00;;;;;;;14.60;7.00;;;;;;;-3.85;74.61;101404.08;1872643;76;21143;-47
2023/02/07 01:06:32;;;;;;;11.85;5.58;;;;;;;-3.91;74.60;101413.39;1872866;77;21521;-45
2023/02/07 01:09:01;;;;;;;15.32;5.45;;;;;;;-3.94;74.30;101408.13;1872802;77;21036;-47
2023/02/07 01:11:30;;;;;;;7.37;3.33;;;;;;;-3.95;74.63;101411.52;1898262;75;21415;-48
2023/02/07 01:14:00;;;;;;;14.43;7.03;;;;;;;-3.96;74.67;101417.51;1905152;75;21008;-48
2023/02/07 01:16:32;;;;;;;6.70;4.67;;;;;;;-3.99;74.77;101410.97;1905304;75;21008;-49
2023/02/07 01:19:04;;;;;;;9.25;3.87;;;;;;;-4.05;74.73;101414.65;1904572;74;21110;-46
2023/02/07 01:21:33;;;;;;;8.50;4.15;;;;;;;-4.08;74.73;101417.11;1902842;75;21522;-46
2023/02/07 01:24:01;;;;;;;10.65;4.65;;;;;;;-4.14;74.77;101418.22;1905388;75;21036;-46
2023/02/07 01:26:30;;;;;;;11.08;5.40;;;;;;;-4.14;74.77;101418.22;1905272;75;21016;-46
2023/02/07 01:28:58;;;;;;;10.20;4.78;;;;;;;-4.20;74.79;101415.46;1905331;74;21055;-46
2023/02/07 01:31:27;;;;;;;13.00;6.58;;;;;;;-4.14;74.82;101428.50;1902985;75;21048;-48
2023/02/07 01:33:58;;;;;;;11.15;5.42;;;;;;;-4.31;74.96;101401.83;1905254;75;21028;-49
2023/02/07 01:36:29;;;;;;;5.55;4.20;;;;;;;-4.25;75.27;101427.29;1905359;75;21036;-49
2023/02/07 01:39:00;;;;;;;11.57;5.33;;;;;;;-4.25;75.27;101427.29;1905220;75;21060;-50
2023/02/07 01:41:29;;;;;;;10.00;5.65;;;;;;;-4.29;75.06;101415.61;1902973;75;21502;-49
2023/02/07 01:44:04;;;;;;;8.40;5.58;;;;;;;-4.33;75.08;101427.05;1879280;75;21145;-50
2023/02/07 01:46:34;;;;;;;7.83;3.90;;;;;;;-4.36;75.19;101426.52;1872794;76;21546;-48
2023/02/07 01:49:08;;;;;;;6.33;3.62;;;;;;;-4.36;75.19;101426.52;1872777;76;21047;-48
2023/02/07 01:51:39;;;;;;;13.43;7.65;;;;;;;-4.37;75.39;101429.03;1872625;76;21106;-49
2023/02/07 01:54:10;;;;;;;19.60;7.67;;;;;;;-4.40;75.43;101414.39;1874863;75;21474;-50
2023/02/07 01:56:44;;;;;;;14.90;6.67;;;;;;;-4.37;75.41;101423.89;1872858;77;21024;-46
2023/02/07 01:59:15;;;;;;;10.25;3.95;;;;;;;-4.44;75.85;101420.64;1872755;77;21024;-45
2023/02/07 02:01:45;;;;;;;19.12;7.70;;;;;;;-4.44;75.85;101420.64;1872910;77;21035;-46
2023/02/07 02:04:13;;;;;;;19.02;8.20;;;;;;;-4.46;75.51;101418.92;1874745;75;21466;-46
2023/02/07 02:06:43;;;;;;;5.28;2.52;;;;;;;-4.52;75.61;101426.83;1872761;77;21036;-54
2023/02/07 02:09:15;;;;;;;14.53;7.58;;;;;;;-4.57;75.69;101421.97;1872799;77;21133;-55
2023/02/07 02:11:59;;;;;;;10.08;5.00;;;;;;;-4.59;75.78;101413.30;1872836;76;21059;-48
2023/02/07 02:14:57;;;;;;;18.57;7.28;;;;;;;-4.62;75.82;101420.94;1875753;75;21100;-48
2023/02/07 02:17:57;;;;;;;14.73;6.97;;;;;;;-4.63;75.91;101420.45;1811560;79;21137;-49
2023/02/07 02:20:41;;;;;;;19.10;8.30;;;;;;;-4.67;75.92;101417.80;1811711;79;21525;-46
2023/02/07 02:23:29;;;;;;;5.33;3.10;;;;;;;-4.71;75.98;101422.77;1829454;76;21094;-49
2023/02/07 02:26:21;;;;;;;11.55;5.62;;;;;;;-4.75;75.99;101416.65;1875031;75;21560;-49
2023/02/07 02:29:23;;;;;;;11.10;6.00;;;;;;;-4.80;76.10;101413.46;1872969;77;21540;-49
2023/02/07 02:32:28;;;;;;;14.90;8.18;;;;;;;-4.83;76.16;101413.34;1872764;77;21032;-50
2023/02/07 02:35:00;;;;;;;;;;;;;;;-4.87;76.26;101409.80;1877731;75;21564;-52
2023/02/07 02:37:58;;;;;;;8.45;5.25;;;;;;;-4.87;76.38;101408.51;1872707;77;20115;-50
2023/02/07 02:40:42;;;;;;;18.07;7.15;;;;;;;-4.89;76.36;101411.44;1872757;76;21584;-49
2023/02/07 02:43:19;;;;;;;13.50;4.72;;;;;;;-4.92;76.41;101410.07;1888077;75;21049;-52
2023/02/07 02:45:53;;;;;;;6.55;4.08;;;;;;;-4.91;76.44;101413.95;1914946;74;21072;-48
2023/02/07 02:48:23;;;;;;;8.23;4.35;;;;;;;-4.94;76.42;101420.67;1924589;74;21109;-51
2023/02/07 02:50:55;;;;;;;12.33;6.72;;;;;;;-4.98;76.46;101417.54;1924778;74;21462;-49
2023/02/07 02:53:23;;;;;;;9.10;4.78;;;;;;;-5.02;76.45;101413.13;1922269;74;21020;-51
2023/02/07 02:56:13;;;;;;;6.50;4.37;;;;;;;-5.09;76.49;101417.16;1924738;74;21081;-53
2023/02/07 02:58:51;;;;;;;15.55;4.72;;;;;;;-5.09;76.57;101418.05;1924562;74;21044;-48
2023/02/07 03:01:43;;;;;;;14.23;6.60;;;;;;;-5.06;76.61;101424.98;1924893;74;21032;-52
2023/02/07 03:04:37;;;;;;;16.57;6.85;;;;;;;-5.09;76.66;101420.63;1922194;74;21113;-50
2023/02/07 03:07:25;;;;;;;6.12;3.42;;;;;;;-5.08;76.67;101412.50;1924744;74;21093;-50
2023/02/07 03:10:09;;;;;;;12.93;3.35;;;;;;;-5.10;76.64;101421.42;1895920;74;21093;-50
2023/02/07 03:12:43;;;;;;;8.13;5.03;;;;;;;-5.09;76.58;101418.05;1924900;74;21502;-51
2023/02/07 03:15:23;;;;;;;9.03;4.60;;;;;;;-5.07;76.55;101418.98;1907299;74;21043;-49
2023/02/07 03:18:14;;;;;;;4.05;2.98;;;;;;;-5.06;76.52;101420.70;1924995;74;21087;-49
2023/02/07 03:20:48;;;;;;;5.62;2.90;;;;;;;-5.07;76.48;101421.55;1924909;74;21121;-49
2023/02/07 03:23:19;;;;;;;7.97;4.55;;;;;;;-5.09;76.52;101415.48;1904109;74;21133;-50
2023/02/07 03:25:51;;;;;;;8.55;4.87;;;;;;;-5.08;76.47;101423.64;1922042;74;21143;-49
2023/02/07 03:28:21;;;;;;;13.68;5.50;;;;;;;-5.12;76.44;101406.37;1924717;74;20999;-46
2023/02/07 03:30:53;;;;;;;10.30;3.60;;;;;;;-5.13;76.50;101423.87;1924586;74;21377;-47
2023/02/07 03:33:24;;;;;;;5.95;2.92;;;;;;;-5.13;76.56;101420.02;1924553;74;21498;-47
2023/02/07 03:36:13;;;;;;;7.12;3.90;;;;;;;-5.12;76.57;101420.50;1922098;74;21035;-46
2023/02/07 03:38:41;;;;;;;10.75;5.62;;;;;;;-5.14;76.52;101420.86;1924129;74;21561;-49
2023/02/07 03:41:13;;;;;;;10.85;5.12;;;;;;;-5.15;76.55;101420.80;1924565;74;21031;-50
2023/02/07 03:43:43;;;;;;;7.78;3.67;;;;;;;-5.18;76.56;101428.00;1898599;74;21152;-52
2023/02/07 03:46:12;;;;;;;12.30;6.72;;;;;;;-5.20;76.62;101439.91;1883705;76;21554;-46
2023/02/07 03:48:40;;;;;;;7.80;3.50;;;;;;;-5.20;76.66;101437.34;1872564;76;21037;-48
2023/02/07 03:51:09;;;;;;;16.45;7.05;;;;;;;-5.23;76.69;101434.66;1872692;77;21035;-50
2023/02/07 03:53:38;;;;;;;13.62;5.72;;;;;;;-5.25;76.74;101451.28;1892442;75;21105;-48
2023/02/07 03:56:07;;;;;;;11.57;4.62;;;;;;;-5.27;76.72;101450.77;1905184;75;21043;-46
2023/02/07 03:58:35;;;;;;;13.53;5.12;;;;;;;-5.29;76.72;101450.70;1905255;75;21250;-47
2023/02/07 04:01:06;;;;;;;9.43;5.05;;;;;;;-5.30;76.69;101452.80;1905205;75;21059;-47
2023/02/07 04:03:34;;;;;;;6.00;3.60;;;;;;;-5.32;76.78;101459.56;1891526;75;21024;-47
2023/02/07 04:06:03;;;;;;;8.20;4.83;;;;;;;-5.32;76.76;101459.98;1872889;76;21044;-48
2023/02/07 04:08:32;;;;;;;9.15;5.33;;;;;;;-5.36;76.81;101455.56;1872696;77;21036;-50
2023/02/07 04:11:03;;;;;;;16.20;6.90;;;;;;;-5.40;76.97;101462.66;1872662;77;21534;-49
2023/02/07 04:13:32;;;;;;;6.55;2.20;;;;;;;-5.43;76.99;101465.58;1880373;75;21094;-48
2023/02/07 04:16:00;;;;;;;17.65;6.10;;;;;;;-5.43;76.96;101465.58;1905262;75;21029;-47
2023/02/07 04:18:29;;;;;;;9.38;6.08;;;;;;;-5.50;77.07;101465.30;1905181;75;21044;-46
2023/02/07 04:21:03;;;;;;;3.52;2.65;;;;;;;-5.54;77.17;101465.58;1905145;75;21471;-49
2023/02/07 04:23:33;;;;;;;15.32;6.60;;;;;;;-5.51;77.30;101461.86;1902653;74;21060;-48
2023/02/07 04:26:02;;;;;;;13.22;5.92;;;;;;;-5.55;77.38;101466.42;1872634;77;21470;-47
2023/02/07 04:28:31;;;;;;;12.25;4.87;;;;;;;-5.60;77.40;101473.05;1872894;77;21466;-48
2023/02/07 04:30:59;;;;;;;11.88;6.60;;;;;;;-5.61;77.56;101472.58;1872701;77;21047;-47
2023/02/07 04:33:28;;;;;;;13.75;6.08;;;;;;;-5.65;77.62;101465.16;1872670;76;21031;-52
2023/02/07 04:36:02;;;;;;;13.08;5.87;;;;;;;-5.66;77.58;101471.55;1874161;75;21075;-50
2023/02/07 04:38:31;;;;;;;20.08;6.95;;;;;;;-5.67;77.66;101468.50;1872646;77;21020;-47
2023/02/07 04:41:05;;;;;;;12.70;5.95;;;;;;;-5.66;77.78;101480.53;1872747;77;21024;-45
2023/02/07 04:43:35;;;;;;;13.25;6.50;;;;;;;-5.69;77.77;101470.14;1888464;75;21068;-45
2023/02/07 04:46:08;;;;;;;11.20;4.77;;;;;;;-5.73;77.81;101481.10;1906202;74;21021;-46
2023/02/07 04:48:37;;;;;;;10.05;3.98;;;;;;;-5.74;77.85;101475.07;1924505;74;21307;-47
2023/02/07 04:51:07;;;;;;;11.85;5.95;;;;;;;-5.74;77.76;101480.62;1924585;74;21023;-50
2023/02/07 04:53:36;;;;;;;17.85;5.05;;;;;;;-5.71;77.73;101478.19;1916705;74;21458;-50
2023/02/07 04:56:05;;;;;;;16.30;6.72;;;;;;;-5.72;77.70;101487.97;1891515;76;21047;-47
2023/02/07 04:58:33;;;;;;;15.95;6.30;;;;;;;-5.76;77.69;101483.12;1891646;76;21032;-50
2023/02/07 05:01:02;;;;;;;11.78;5.97;;;;;;;-5.78;77.56;101487.73;1891527;76;21063;-47
2023/02/07 05:03:32;;;;;;;14.63;8.53;;;;;;;-5.77;77.50;101492.03;1901972;74;21113;-46
2023/02/07 05:06:00;;;;;;;20.75;9.03;;;;;;;-5.80;77.54;101494.50;1924634;74;21032;-50
2023/02/07 05:08:29;;;;;;;12.07;7.40;;;;;;;-5.82;77.57;101500.42;1924664;74;21008;-48
2023/02/07 05:10:58;;;;;;;6.42;3.40;;;;;;;-5.85;77.51;101497.73;1924644;74;21109;-46
2023/02/07 05:13:27;;;;;;;8.55;4.08;;;;;;;-5.83;77.49;101492.28;1919906;74;21252;-49
2023/02/07 05:15:55;;;;;;;10.05;4.87;;;;;;;-5.81;77.41;101497.45;1891492;75;21043;-50
2023/02/07 05:18:24;;;;;;;13.13;6.22;;;;;;;-5.79;77.30;101500.08;1891452;76;21011;-49
2023/02/07 05:20:53;;;;;;;4.87;3.62;;;;;;;-5.82;77.22;101508.13;1891505;76;21035;-51
2023/02/07 05:23:25;;;;;;;10.32;5.37;;;;;;;-5.84;77.20;101510.17;1891620;76;21035;-50
2023/02/07 05:25:54;;;;;;;16.05;7.05;;;;;;;-5.84;77.11;101502.06;1924544;74;21118;-49
2023/02/07 05:28:22;;;;;;;7.83;4.90;;;;;;;-5.85;76.91;101504.14;1924657;74;21008;-49
2023/02/07 05:30:54;;;;;;;22.30;9.65;;;;;;;-5.84;76.87;101514.02;1924541;74;21105;-48
2023/02/07 05:33:22;;;;;;;6.30;3.92;;;;;;;-5.84;76.71;101514.89;1924641;74;21074;-45
2023/02/07 05:35:51;;;;;;;10.78;5.47;;;;;;;-5.84;76.72;101518.73;1898255;74;21078;-49
2023/02/07 05:38:20;;;;;;;13.15;6.10;;;;;;;-5.84;76.72;101518.73;1891472;76;21120;-50
2023/02/07 05:40:49;;;;;;;12.70;6.20;;;;;;;-5.81;76.75;101524.38;1891465;76;21462;-49
2023/02/07 05:43:18;;;;;;;22.73;8.08;;;;;;;-5.78;76.68;101522.36;1892530;74;21139;-50
2023/02/07 05:45:46;;;;;;;18.17;5.97;;;;;;;-5.77;76.58;101528.84;1891468;76;21133;-48
2023/02/07 05:48:15;;;;;;;12.93;6.37;;;;;;;-5.73;76.61;101533.69;1879515;75;21161;-50
2023/02/07 05:50:44;;;;;;;16.40;6.70;;;;;;;-5.69;76.54;101531.71;1872781;77;21032;-47
2023/02/07 05:53:12;;;;;;;22.98;6.53;;;;;;;-5.65;76.45;101533.58;1874871;75;21118;-47
2023/02/07 05:55:43;;;;;;;10.23;5.03;;;;;;;-5.65;76.41;101546.41;1872685;76;21064;-48
2023/02/07 05:58:11;;;;;;;6.05;4.35;;;;;;;-5.64;76.34;101546.89;1872234;76;21486;-46
2023/02/07 06:00:40;;;;;;;10.93;5.07;;;;;;;-5.64;76.34;101541.34;1872776;77;21028;-48
2023/02/07 06:03:09;;;;;;;12.10;4.67;;;;;;;-5.61;76.27;101544.42;1874970;75;21503;-51
2023/02/07 06:05:37;;;;;;;13.88;7.08;;;;;;;-5.63;76.37;101548.63;1872715;77;21125;-47
2023/02/07 06:08:06;;;;;;;15.63;6.80;;;;;;;-5.63;76.27;101553.75;1872756;77;21012;-48
2023/02/07 06:10:34;;;;;;;16.00;7.58;;;;;;;-5.63;76.27;101556.31;1872719;76;21106;-51
2023/02/07 06:13:03;;;;;;;14.65;4.42;;;;;;;-5.61;76.31;101558.53;1872761;77;21133;-48
2023/02/07 06:15:32;;;;;;;7.62;4.00;;;;;;;-5.62;76.32;101558.95;1874860;75;21047;-46
2023/02/07 06:18:02;;;;;;;6.55;2.65;;;;;;;-5.62;76.42;101561.52;1872783;76;21109;-47
2023/02/07 06:20:30;;;;;;;13.22;5.25;;;;;;;-5.59;76.42;101559.88;1878676;75;21506;-43
2023/02/07 06:22:59;;;;;;;8.25;4.65;;;;;;;-5.51;76.44;101564.52;1897003;75;21080;-46
2023/02/07 06:25:28;;;;;;;12.50;3.80;;;;;;;-5.50;76.21;101558.55;1905190;75;21479;-46
2023/02/07 06:27:57;;;;;;;2.85;1.98;;;;;;;-5.51;76.08;101571.34;1905312;75;20985;-46
2023/02/07 06:30:25;;;;;;;10.58;3.58;;;;;;;-5.49;76.14;101569.30;1905204;75;21024;-49
2023/02/07 06:32:55;;;;;;;6.10;2.98;;;;;;;-5.49;76.11;101580.84;1895888;75;21106;-46
2023/02/07 06:35:24;;;;;;;6.58;4.45;;;;;;;-5.50;75.98;101585.50;1872753;76;21040;-45
2023/02/07 06:37:52;;;;;;;8.05;4.17;;;;;;;-5.51;75.90;101596.59;1872709;77;21146;-45
2023/02/07 06:40:21;;;;;;;10.45;4.22;;;;;;;-5.53;75.76;101590.53;1872743;77;21060;-46
2023/02/07 06:42:53;;;;;;;7.83;3.33;;;;;;;-5.53;75.57;101588.34;1876310;75;21113;-49
2023/02/07 06:45:21;;;;;;;6.65;2.90;;;;;;;-5.53;75.51;101596.05;1905228;75;21113;-48
2023/02/07 06:47:50;;;;;;;10.25;4.22;;;;;;;-5.58;75.43;101598.44;1908485;74;21141;-47
2023/02/07 06:50:19;;;;;;;3.85;1.92;;;;;;;-5.56;75.37;101599.80;1924659;74;21040;-46
2023/02/07 06:52:47;;;;;;;10.45;4.60;;;;;;;-5.60;75.44;101594.94;1901732;74;21589;-50
2023/02/07 06:55:16;;;;;;;11.70;5.30;;;;;;;-5.60;75.58;101600.07;1891506;76;21132;-46
2023/02/07 06:57:45;;;;;;;3.98;1.72;;;;;;;-5.64;75.61;101584.09;1891549;76;21015;-48
2023/02/07 07:00:20;;;;;;;5.00;2.50;;;;;;;-5.67;75.55;101596.37;1891451;76;20999;-47
2023/02/07 07:02:48;;;;;;;10.03;4.92;;;;;;;-5.66;75.51;101589.16;1896032;74;21176;-46
2023/02/07 07:05:17;;;;;;;8.78;3.22;;;;;;;-5.67;75.48;101589.95;1891394;76;21534;-48
2023/02/07 07:07:48;;;;;;;17.55;3.75;;;;;;;-5.66;75.46;101585.72;1893221;74;21031;-47
2023/02/07 07:10:17;;;;;;;12.95;5.37;;;;;;;-5.65;75.42;101589.61;1908721;74;21032;-47
2023/02/07 07:12:47;;;;;;;4.55;2.90;;;;;;;-5.63;75.43;101593.52;1924579;74;21048;-49
2023/02/07 07:15:16;;;;;;;7.55;3.92;;;;;;;-5.61;75.37;101581.63;1903092;74;21105;-47
2023/02/07 07:17:44;;;;;;;11.35;3.45;;;;;;;-5.59;75.41;101594.11;1922086;74;21055;-49
2023/02/07 07:20:13;;;;;;;7.85;4.35;;;;;;;-5.57;75.32;101598.92;1924283;74;21016;-47
2023/02/07 07:22:43;;;;;;;7.10;4.20;;;;;;;-5.56;75.39;101597.23;1924600;74;21564;-48
2023/02/07 07:25:12;;;;;;;11.68;5.97;;;;;;;-5.56;75.40;101604.51;1924671;74;21478;-49
2023/02/07 07:27:40;;;;;;;8.50;3.45;;;;;;;-5.58;75.15;101595.87;1922082;74;21563;-47
2023/02/07 07:30:10;;;;;;;10.30;4.25;;;;;;;-5.64;74.95;101609.75;1924670;74;21047;-49
2023/02/07 07:32:39;;;;;;;12.25;5.28;;;;;;;-5.65;74.91;101612.70;1924708;74;21153;-47
2023/02/07 07:35:08;;;;;;;8.43;2.27;;;;;;;-5.64;74.94;101613.59;1924612;74;21027;-50
2023/02/07 07:37:40;;;;;;;10.20;3.65;;;;;;;-5.60;74.94;101609.05;1922304;74;21024;-50
2023/02/07 07:40:09;;;;;;;2.65;1.82;;;;;;;-5.58;75.00;101610.41;1924304;74;21074;-48
2023/02/07 07:42:38;;;;;;;5.25;3.02;;;;;;;-5.53;75.03;101616.58;1924698;74;21019;-45
2023/02/07 07:45:24;;;;;;;11.63;3.37;;;;;;;-5.50;74.99;101608.59;1923626;74;21127;-46
2023/02/07 07:47:53;;;;;;;9.43;3.80;;;;;;;-5.47;74.92;101612.58;1916018;74;21019;-45
2023/02/07 07:50:21;;;;;;;3.40;2.72;;;;;;;-5.45;74.88;101613.52;1874212;75;21031;-45
2023/02/07 07:52:50;;;;;;;7.78;3.55;;;;;;;-5.37;74.98;101620.65;1872686;76;21087;-45
2023/02/07 07:55:19;;;;;;;3.50;2.25;;;;;;;-5.37;74.92;101618.08;1872813;76;21160;-47
2023/02/07 07:57:49;;;;;;;4.67;2.87;;;;;;;-5.36;74.95;101620.72;1874566;75;21040;-49
2023/02/07 08:00:18;;;;;;;7.62;2.92;;;;;;;-5.32;74.93;101625.56;1874176;75;21244;-51
2023/02/07 08:02:46;;;;;;;14.58;5.55;;;;;;;-5.41;74.96;101623.91;1886665;75;21063;-46
2023/02/07 08:05:15;;;;;;;9.00;3.55;;;;;;;-5.51;75.02;101622.26;1871780;77;21091;-46
2023/02/07 08:07:44;;;;;;;17.12;5.80;;;;;;;-5.54;75.13;101625.11;1892447;75;21122;-45
2023/02/07 08:10:12;;;;;;;10.23;3.83;;;;;;;-5.56;75.24;101630.17;1904358;75;21130;-46
2023/02/07 08:12:41;;;;;;;12.00;5.12;;;;;;;-5.56;75.20;101632.73;1904250;75;21107;-45
2023/02/07 08:15:10;;;;;;;7.30;3.80;;;;;;;-5.50;75.26;101635.55;1904366;75;21032;-47
2023/02/07 08:17:38;;;;;;;13.08;4.55;;;;;;;-5.47;74.96;101638.24;1904207;75;21157;-46
2023/02/07 08:20:08;;;;;;;6.22;1.92;;;;;;;-5.43;74.94;101642.68;1901025;75;21098;-45
2023/02/07 08:22:37;;;;;;;4.45;2.30;;;;;;;-5.40;74.78;101646.18;1904294;75;21030;-45
2023/02/07 08:25:07;;;;;;;17.80;4.60;;;;;;;-5.32;74.81;101647.39;1903151;75;21009;-45
2023/02/07 08:27:36;;;;;;;12.53;3.83;;;;;;;-5.26;74.70;101643.77;1871864;77;21031;-44
2023/02/07 08:30:07;;;;;;;7.10;3.52;;;;;;;-5.21;74.63;101646.13;1872094;77;21117;-48
2023/02/07 08:32:39;;;;;;;11.28;5.40;;;;;;;-5.11;74.53;101652.48;1872721;77;21036;-45
2023/02/07 08:35:11;;;;;;;14.28;4.65;;;;;;;-5.11;74.53;101652.48;1872808;77;21044;-45
2023/02/07 08:37:40;;;;;;;12.10;3.42;;;;;;;-5.11;73.95;101653.39;1872891;77;21138;-42
2023/02/07 08:40:11;;;;;;;8.23;3.67;;;;;;;-5.16;74.03;101650.17;1872721;77;21153;-43
2023/02/07 08:42:39;;;;;;;4.67;2.30;;;;;;;-5.17;73.93;101656.97;1872657;77;21113;-45
2023/02/07 08:45:16;;;;;;;8.53;3.67;;;;;;;-5.19;73.83;101656.05;1867917;77;21073;-43
2023/02/07 08:47:39;;;;;;;6.78;3.15;;;;;;;-5.16;73.74;101654.89;1839850;77;21141;-44
2023/02/07 08:50:09;;;;;;;15.00;5.72;;;;;;;-5.15;73.42;101656.63;1850768;77;21064;-43
2023/02/07 08:52:38;;;;;;;8.30;3.58;;;;;;;-5.16;72.95;101656.59;1859986;77;21044;-45
2023/02/07 08:55:07;;;;;;;5.05;2.25;;;;;;;-5.20;73.26;101654.31;1859886;77;21045;-43
2023/02/07 08:57:36;;;;;;;17.20;5.60;;;;;;;-5.14;73.17;101645.55;1859954;76;21468;-46
2023/02/07 09:00:09;;;;;;;6.10;3.35;;;;;;;-5.13;73.11;101646.00;1859962;77;21057;-46
2023/02/07 09:02:38;;;;;;;6.03;3.02;;;;;;;-5.17;72.81;101642.85;1860090;77;21100;-43
2023/02/07 09:05:07;;;;;;;9.03;3.20;;;;;;;-5.11;72.70;101646.97;1859969;77;21041;-42
2023/02/07 09:07:37;;;;;;;5.17;2.77;;;;;;;-5.07;72.70;101641.13;1859930;77;21069;-42
2023/02/07 09:10:07;;;;;;;9.55;4.25;;;;;;;-4.92;72.95;101639.56;1860072;77;21057;-44
2023/02/07 09:12:38;;;;;;;4.28;2.10;;;;;;;-4.85;72.54;101631.66;1860067;77;21060;-43
2023/02/07 09:15:07;;;;;;;10.98;4.33;;;;;;;-4.90;72.49;101631.92;1859987;77;21055;-43
2023/02/07 09:17:36;;;;;;;7.78;3.92;;;;;;;-4.81;72.58;101633.94;1860062;77;21049;-43
2023/02/07 09:20:05;;;;;;;7.80;4.00;;;;;;;-4.86;72.17;101631.21;1859855;77;21048;-44
2023/02/07 09:23:16;;;;;;;6.00;2.60;;;;;;;-4.93;72.24;101632.66;1859946;77;21467;-42
2023/02/07 09:25:04;;;;;;;5.00;2.65;;;;;;;-4.90;72.52;101631.92;1857035;77;21110;-45
2023/02/07 09:27:32;;;;;;;2.27;1.52;;;;;;;-4.86;72.61;101635.93;1859919;77;21092;-43
2023/02/07 09:30:01;;;;;;;8.40;3.75;;;;;;;-4.83;72.60;101628.77;1859912;77;21084;-44
2023/02/07 09:32:30;;;;;;;6.83;3.00;;;;;;;-4.87;72.47;101627.77;1859871;77;21656;-43
2023/02/07 09:34:59;;;;;;;12.00;5.10;;;;;;;-4.88;72.62;101639.27;1859921;77;21127;-43
2023/02/07 09:37:28;;;;;;;10.38;3.55;;;;;;;-4.91;72.45;101637.86;1859990;77;21040;-43
2023/02/07 09:39:56;;;;;;;6.00;3.27;;;;;;;-5.04;71.99;101647.64;1860185;77;20997;-43
2023/02/07 09:42:40;;;;;;;6.10;3.08;;;;;;;-5.11;72.08;101635.41;1860076;77;21037;-45
2023/02/07 09:45:11;;;;;;;8.95;4.37;;;;;;;-5.15;72.19;101639.06;1860098;77;21534;-43
2023/02/07 09:47:43;;;;;;;7.58;2.58;;;;;;;-5.21;72.11;101640.12;1859612;77;21085;-47
2023/02/07 09:50:23;;;;;;;6.45;2.77;;;;;;;-5.25;72.38;101642.97;1859973;76;21077;-45
2023/02/07 09:52:58;;;;;;;6.33;5.28;;;;;;;-5.27;72.37;101640.75;1858306;77;21507;-44
2023/02/07 09:55:51;;;;;;;8.48;3.95;;;;;;;-5.29;72.31;101634.69;1859628;77;21029;-46
2023/02/07 09:58:46;;;;;;;8.80;1.85;;;;;;;-5.26;72.35;101634.78;1860062;77;21029;-45
2023/02/07 10:01:23;;;;;;;5.45;3.75;;;;;;;-5.20;72.47;101636.72;1860054;77;21016;-46
2023/02/07 10:03:55;;;;;;;7.67;2.58;;;;;;;-5.12;72.23;101634.06;1860084;76;21032;-45
2023/02/07 10:06:28;;;;;;;23.02;3.17;;;;;;;-5.16;72.30;101636.91;1860018;77;21044;-45
2023/02/07 10:09:00;;;;;;;6.53;3.92;;;;;;;-5.13;72.02;101630.59;1860320;77;21135;-45
2023/02/07 10:11:37;;;;;;;10.03;3.58;;;;;;;-5.13;71.99;101643.44;1860091;77;21037;-43
2023/02/07 10:14:23;;;;;;;11.53;3.67;;;;;;;-5.12;72.02;101640.06;1854998;77;21130;-43
2023/02/07 10:17:11;;;;;;;5.50;3.00;;;;;;;-5.06;71.92;101635.16;1825255;77;21092;-47
2023/02/07 10:20:07;;;;;;;7.25;3.58;;;;;;;-5.08;71.92;101640.64;1860034;77;21048;-43
2023/02/07 10:23:04;;;;;;;10.82;4.55;;;;;;;-5.12;71.83;101638.78;1857782;77;21531;-42
2023/02/07 10:25:47;;;;;;;9.33;3.77;;;;;;;-5.15;71.58;101639.93;1860075;77;21126;-46
2023/02/07 10:28:18;;;;;;;10.93;3.62;;;;;;;-5.24;71.72;101645.98;1860024;77;21045;-46
2023/02/07 10:30:53;;;;;;;6.47;2.98;;;;;;;-5.22;71.83;101643.06;1860046;77;21036;-47
2023/02/07 10:33:24;;;;;;;12.82;4.03;;;;;;;-5.21;71.85;101640.98;1859979;77;21123;-45
2023/02/07 10:35:54;;;;;;;6.78;2.92;;;;;;;-5.26;71.92;101641.20;1859707;77;21088;-45
2023/02/07 10:38:34;;;;;;;10.28;5.05;;;;;;;-5.28;71.99;101644.98;1860037;77;21482;-43
2023/02/07 10:41:12;;;;;;;10.38;4.20;;;;;;;-5.33;72.15;101646.52;1859170;77;21045;-46
2023/02/07 10:43:44;;;;;;;9.65;2.60;;;;;;;-5.30;72.28;101647.03;1858968;77;21857;-45
2023/02/07 10:46:15;;;;;;;10.48;3.87;;;;;;;-5.20;72.31;101647.89;1860035;77;21032;-43
2023/02/07 10:48:44;;;;;;;7.67;2.50;;;;;;;-5.16;72.06;101646.31;1859013;77;21053;-42
2023/02/07 10:51:31;;;;;;;10.03;5.47;;;;;;;-5.15;71.80;101647.64;1840684;77;21052;-47
2023/02/07 10:54:19;;;;;;;10.85;2.40;;;;;;;-5.11;71.76;101645.69;1859650;77;21042;-44
2023/02/07 10:56:59;;;;;;;15.20;3.80;;;;;;;-5.00;71.84;101645.20;1859803;77;21123;-46
2023/02/07 10:59:45;;;;;;;7.03;3.75;;;;;;;-4.95;71.70;101653.56;1859739;77;21447;-44
2023/02/07 11:02:36;;;;;;;4.53;2.25;;;;;;;-4.90;71.65;101657.61;1859657;77;21115;-45
2023/02/07 11:05:07;;;;;;;11.43;5.80;;;;;;;-4.86;71.69;101654.33;1859734;77;21099;-47
2023/02/07 11:07:36;;;;;;;3.67;1.60;;;;;;;-4.85;71.55;101659.53;1853940;77;21073;-47
2023/02/07 11:10:20;;;;;;;12.85;4.12;;;;;;;-4.85;71.56;101659.53;1859741;77;21044;-50
2023/02/07 11:12:57;;;;;;;6.37;4.15;;;;;;;-4.82;71.55;101663.91;1859639;77;21061;-45
2023/02/07 11:15:28;;;;;;;11.83;4.37;;;;;;;-4.88;71.32;101667.53;1859735;77;21032;-47
2023/02/07 11:17:58;;;;;;;11.73;3.72;;;;;;;-4.95;71.31;101664.25;1859102;77;21029;-48
2023/02/07 11:20:35;;;;;;;9.45;3.70;;;;;;;-5.04;71.46;101664.76;1859722;77;21131;-47
2023/02/07 11:23:07;;;;;;;14.18;3.80;;;;;;;-5.02;71.44;101664.82;1859733;77;21499;-45
2023/02/07 11:25:38;;;;;;;5.40;2.52;;;;;;;-5.06;71.61;101668.55;1858807;77;21708;-49
2023/02/07 11:28:09;;;;;;;7.28;3.80;;;;;;;-5.09;71.78;101670.11;1858338;77;21085;-47
2023/02/07 11:30:38;;;;;;;10.28;3.90;;;;;;;-5.12;71.87;101672.16;1858979;77;21040;-46
2023/02/07 11:33:09;;;;;;;5.90;3.40;;;;;;;-5.16;71.85;101675.44;1859744;77;21045;-47
2023/02/07 11:35:40;;;;;;;11.22;4.78;;;;;;;-5.15;71.99;101672.03;1858986;77;21020;-45
2023/02/07 11:38:15;;;;;;;15.68;4.78;;;;;;;-5.15;72.08;101678.87;1859936;77;21088;-46
2023/02/07 11:40:46;;;;;;;7.30;3.02;;;;;;;-5.18;71.91;101684.77;1859810;77;21052;-49
2023/02/07 11:43:21;;;;;;;9.70;3.42;;;;;;;-5.16;72.14;101690.84;1859843;77;21064;-45
2023/02/07 11:45:54;;;;;;;4.72;2.55;;;;;;;-5.09;72.24;101676.16;1859861;77;21048;-46